Time;durP1;ratioP1;P1;durP2;ratioP2;P2;SDS_P1;SDS_P2;PMS_P1;PMS_P2;Temp;Humidity;BMP_temperature;BMP_pressure;BME280_temperature;BME280_humidity;BME280_pressure;Samples;Min_cycle;Max_cycle;Signal;HPM_P1;HPM_P2
2024/01/01 00:00:44;;;;;;;22.27;9.35;;;;;;;;;;4936803;29;20487;-77
2024/01/01 00:03:10;;;;;;;21.27;9.10;;;;;;;;;;4921749;29;20047;-77
2024/01/01 00:05:36;;;;;;;17.67;8.88;;;;;;;;;;4906236;29;20048;-77
2024/01/01 00:08:02;;;;;;;16.92;8.80;;;;;;;;;;4919836;29;20052;-77
2024/01/01 00:10:28;;;;;;;21.80;9.45;;;;;;;;;;4922323;28;20547;-77
2024/01/01 00:12:54;;;;;;;15.75;8.38;;;;;;;;;;4918351;28;20452;-77
2024/01/01 00:15:20;;;;;;;16.02;8.15;;;;;;;;;;4933140;29;20090;-77
2024/01/01 00:17:47;;;;;;;16.42;8.35;;;;;;;;;;4918341;29;20040;-77
2024/01/01 00:20:14;;;;;;;11.73;6.50;;;;;;;;;;4918558;29;20084;-77
2024/01/01 00:22:41;;;;;;;12.75;7.35;;;;;;;;;;4935827;29;20484;-77
2024/01/01 00:25:07;;;;;;;11.23;5.45;;;;;;;;;;4929232;29;20044;-78
2024/01/01 00:27:34;;;;;;;14.80;7.88;;;;;;;;;;4931968;29;20531;-77
2024/01/01 00:30:01;;;;;;;11.55;5.53;;;;;;;;;;4927154;29;20424;-77
2024/01/01 00:32:27;;;;;;;13.60;7.30;;;;;;;;;;4937285;29;20054;-77
2024/01/01 00:34:53;;;;;;;14.68;6.50;;;;;;;;;;4936600;29;20035;-77
2024/01/01 00:37:19;;;;;;;15.90;7.60;;;;;;;;;;4922481;29;20122;-77
2024/01/01 00:39:45;;;;;;;13.13;8.20;;;;;;;;;;4909660;29;20039;-77
2024/01/01 00:42:11;;;;;;;16.27;9.77;;;;;;;;;;4937561;29;20047;-77
2024/01/01 00:44:38;;;;;;;18.48;10.65;;;;;;;;;;4921149;29;20047;-77
2024/01/01 00:47:04;;;;;;;15.52;8.85;;;;;;;;;;4935773;29;20042;-77
2024/01/01 00:49:30;;;;;;;15.48;9.55;;;;;;;;;;4905726;29;20184;-77
2024/01/01 00:51:57;;;;;;;12.00;6.63;;;;;;;;;;4926631;29;20052;-77
2024/01/01 00:54:26;;;;;;;17.45;7.03;;;;;;;;;;4919396;29;20396;-77
2024/01/01 00:56:54;;;;;;;13.45;7.78;;;;;;;;;;4917056;29;20040;-77
2024/01/01 00:59:20;;;;;;;13.23;6.93;;;;;;;;;;4937014;28;20075;-77
2024/01/01 01:01:46;;;;;;;17.65;8.48;;;;;;;;;;4919598;29;20460;-77
2024/01/01 01:04:12;;;;;;;12.07;8.30;;;;;;;;;;4935954;29;20082;-77
2024/01/01 01:06:38;;;;;;;14.52;9.27;;;;;;;;;;4925358;29;20043;-77
2024/01/01 01:09:05;;;;;;;16.13;9.65;;;;;;;;;;4902395;29;20047;-77
2024/01/01 01:11:31;;;;;;;17.58;10.32;;;;;;;;;;4927340;29;20078;-77
2024/01/01 01:13:57;;;;;;;21.60;11.38;;;;;;;;;;4919916;29;20118;-77
2024/01/01 01:16:26;;;;;;;21.48;12.85;;;;;;;;;;4926900;29;20122;-78
2024/01/01 01:18:52;;;;;;;17.67;13.15;;;;;;;;;;4923175;29;20067;-77
2024/01/01 01:21:18;;;;;;;24.08;14.63;;;;;;;;;;4892003;28;20046;-77
2024/01/01 01:23:45;;;;;;;22.33;13.85;;;;;;;;;;4935325;28;20126;-77
2024/01/01 01:26:11;;;;;;;22.40;14.30;;;;;;;;;;4935152;28;20039;-77
2024/01/01 01:28:37;;;;;;;22.17;14.85;;;;;;;;;;4923190;29;20502;-77
2024/01/01 01:31:03;;;;;;;27.52;16.58;;;;;;;;;;4936318;29;20134;-78
2024/01/01 01:33:29;;;;;;;28.63;18.27;;;;;;;;;;4905503;29;20054;-77
2024/01/01 01:35:55;;;;;;;30.30;18.08;;;;;;;;;;4922531;29;20043;-78
2024/01/01 01:38:23;;;;;;;34.13;19.48;;;;;;;;;;4923423;29;20098;-77
2024/01/01 01:40:49;;;;;;;38.17;21.75;;;;;;;;;;4930024;29;20101;-77
2024/01/01 01:43:20;;;;;;;39.88;24.02;;;;;;;;;;4936943;29;20143;-77
2024/01/01 01:45:46;;;;;;;41.42;26.75;;;;;;;;;;4939612;29;20125;-76
2024/01/01 01:48:12;;;;;;;42.90;27.67;;;;;;;;;;4939963;29;20098;-76
2024/01/01 01:50:38;;;;;;;46.92;27.98;;;;;;;;;;4938012;29;20047;-76
2024/01/01 01:53:04;;;;;;;50.10;29.70;;;;;;;;;;4938337;29;20041;-76
2024/01/01 01:55:31;;;;;;;45.75;27.55;;;;;;;;;;4906145;29;20075;-76
2024/01/01 01:57:57;;;;;;;45.10;28.00;;;;;;;;;;4937049;29;20035;-76
2024/01/01 02:00:23;;;;;;;40.72;26.65;;;;;;;;;;4937947;29;20384;-76
2024/01/01 02:02:49;;;;;;;42.22;25.30;;;;;;;;;;4938292;29;20075;-75
2024/01/01 02:05:16;;;;;;;39.75;25.38;;;;;;;;;;4939570;28;20049;-76
2024/01/01 02:07:43;;;;;;;39.00;24.80;;;;;;;;;;4938100;29;20086;-76
2024/01/01 02:10:09;;;;;;;40.22;24.20;;;;;;;;;;4937995;29;20047;-76
2024/01/01 02:12:35;;;;;;;36.15;23.08;;;;;;;;;;4921763;29;20049;-76
2024/01/01 02:15:02;;;;;;;38.90;23.92;;;;;;;;;;4937830;29;20491;-76
2024/01/01 02:17:28;;;;;;;37.53;22.90;;;;;;;;;;4923363;29;20066;-76
2024/01/01 02:19:54;;;;;;;40.22;22.00;;;;;;;;;;4921003;29;20073;-76
2024/01/01 02:22:20;;;;;;;33.42;21.25;;;;;;;;;;4937943;29;20138;-76
2024/01/01 02:24:46;;;;;;;39.25;21.30;;;;;;;;;;4920276;29;20058;-76
2024/01/01 02:27:12;;;;;;;36.60;20.45;;;;;;;;;;4929727;29;20055;-76
2024/01/01 02:29:38;;;;;;;33.72;19.38;;;;;;;;;;4939027;29;20061;-76
2024/01/01 02:32:05;;;;;;;30.15;17.88;;;;;;;;;;4938451;29;20390;-75
2024/01/01 02:34:31;;;;;;;33.35;18.38;;;;;;;;;;4937969;29;20050;-76
2024/01/01 02:36:57;;;;;;;26.83;17.75;;;;;;;;;;4938709;29;20097;-75
2024/01/01 02:39:23;;;;;;;28.92;16.27;;;;;;;;;;4919715;29;20043;-76
2024/01/01 02:41:49;;;;;;;27.85;16.45;;;;;;;;;;4926573;29;20067;-75
2024/01/01 02:44:17;;;;;;;26.45;15.57;;;;;;;;;;4937382;29;20049;-75
2024/01/01 02:46:43;;;;;;;26.05;15.00;;;;;;;;;;4936925;29;20050;-76
2024/01/01 02:49:09;;;;;;;29.98;14.52;;;;;;;;;;4937243;29;20043;-76
2024/01/01 02:51:35;;;;;;;26.42;15.05;;;;;;;;;;4938957;29;20043;-76
2024/01/01 02:54:01;;;;;;;24.23;13.68;;;;;;;;;;4936966;29;20090;-76
2024/01/01 02:56:28;;;;;;;24.10;14.35;;;;;;;;;;4921403;29;20040;-76
2024/01/01 02:58:55;;;;;;;23.77;13.57;;;;;;;;;;4921100;29;20035;-75
2024/01/01 03:01:21;;;;;;;25.50;13.57;;;;;;;;;;4935355;28;20047;-76
2024/01/01 03:03:47;;;;;;;23.02;12.90;;;;;;;;;;4938323;29;20412;-76
2024/01/01 03:06:14;;;;;;;21.98;13.18;;;;;;;;;;4905831;29;20047;-75
2024/01/01 03:08:40;;;;;;;24.85;13.40;;;;;;;;;;4921663;29;20040;-75
2024/01/01 03:11:06;;;;;;;26.42;12.52;;;;;;;;;;4920767;29;20083;-75
2024/01/01 03:13:33;;;;;;;20.75;11.35;;;;;;;;;;4928355;29;20043;-75
2024/01/01 03:15:59;;;;;;;18.85;10.27;;;;;;;;;;4937250;28;20047;-75
2024/01/01 03:18:26;;;;;;;17.02;10.05;;;;;;;;;;4936752;29;20039;-75
2024/01/01 03:20:52;;;;;;;19.55;9.10;;;;;;;;;;4922371;29;20047;-75
2024/01/01 03:23:18;;;;;;;17.20;9.23;;;;;;;;;;4938247;29;20454;-76
2024/01/01 03:25:44;;;;;;;16.42;9.57;;;;;;;;;;4923085;29;20047;-76
2024/01/01 03:28:10;;;;;;;13.38;8.50;;;;;;;;;;4920466;29;20490;-75
2024/01/01 03:30:36;;;;;;;16.92;8.27;;;;;;;;;;4934777;28;20554;-75
2024/01/01 03:33:02;;;;;;;17.38;8.48;;;;;;;;;;4937932;29;20135;-76
2024/01/01 03:35:31;;;;;;;19.42;8.68;;;;;;;;;;4947600;28;20036;-77
2024/01/01 03:37:58;;;;;;;22.45;8.65;;;;;;;;;;4905183;29;20967;-76
2024/01/01 03:40:24;;;;;;;16.70;7.90;;;;;;;;;;4909570;29;20085;-75
2024/01/01 03:42:50;;;;;;;14.70;7.68;;;;;;;;;;4905774;29;20071;-75
2024/01/01 03:45:16;;;;;;;16.55;7.72;;;;;;;;;;4919394;29;20047;-76
2024/01/01 03:47:42;;;;;;;18.92;7.57;;;;;;;;;;4915131;29;20051;-76
2024/01/01 03:50:09;;;;;;;12.20;6.80;;;;;;;;;;4906400;29;20102;-75
2024/01/01 03:52:35;;;;;;;16.58;6.53;;;;;;;;;;4928528;29;20043;-75
2024/01/01 03:55:01;;;;;;;11.85;6.13;;;;;;;;;;4903707;29;20137;-75
2024/01/01 03:57:27;;;;;;;15.63;6.03;;;;;;;;;;4925929;29;20047;-75
2024/01/01 03:59:53;;;;;;;12.13;6.10;;;;;;;;;;4937745;28;20051;-75
2024/01/01 04:02:19;;;;;;;14.55;5.95;;;;;;;;;;4935861;29;20039;-75
2024/01/01 04:04:45;;;;;;;15.18;6.55;;;;;;;;;;4938161;29;20042;-75
2024/01/01 04:07:12;;;;;;;19.02;5.50;;;;;;;;;;4937844;29;20047;-75
2024/01/01 04:09:38;;;;;;;16.33;6.05;;;;;;;;;;4937865;29;20043;-75
2024/01/01 04:12:04;;;;;;;10.35;5.13;;;;;;;;;;4921735;29;20135;-75
2024/01/01 04:14:30;;;;;;;12.27;5.18;;;;;;;;;;4940913;29;20043;-75
2024/01/01 04:16:56;;;;;;;13.80;5.10;;;;;;;;;;4938428;29;20135;-75
2024/01/01 04:19:22;;;;;;;10.82;5.13;;;;;;;;;;4937115;29;20051;-75
2024/01/01 04:21:48;;;;;;;10.35;4.80;;;;;;;;;;4936947;29;20492;-75
2024/01/01 04:24:15;;;;;;;12.45;4.50;;;;;;;;;;4937184;29;20111;-75
2024/01/01 04:26:41;;;;;;;11.25;5.05;;;;;;;;;;4936102;29;20035;-75
2024/01/01 04:29:07;;;;;;;12.18;4.13;;;;;;;;;;4905272;28;20079;-75
2024/01/01 04:31:33;;;;;;;12.15;4.22;;;;;;;;;;4935108;29;20067;-76
2024/01/01 04:33:59;;;;;;;8.63;3.70;;;;;;;;;;4935905;29;20051;-76
2024/01/01 04:36:25;;;;;;;8.90;3.78;;;;;;;;;;4935847;29;20079;-76
2024/01/01 04:38:51;;;;;;;9.82;3.83;;;;;;;;;;4931692;29;20035;-75
2024/01/01 04:41:17;;;;;;;8.30;3.22;;;;;;;;;;4902555;29;20043;-76
2024/01/01 04:43:44;;;;;;;8.13;2.97;;;;;;;;;;4912885;29;20046;-75
2024/01/01 04:46:10;;;;;;;11.73;3.13;;;;;;;;;;4903842;29;20040;-76
2024/01/01 04:48:36;;;;;;;4.50;2.40;;;;;;;;;;4920055;29;20493;-76
2024/01/01 04:51:03;;;;;;;7.53;2.55;;;;;;;;;;4931567;29;20079;-75
2024/01/01 04:53:29;;;;;;;4.93;2.50;;;;;;;;;;4886954;29;20035;-76
2024/01/01 04:55:55;;;;;;;4.78;2.28;;;;;;;;;;4904103;29;20069;-76
2024/01/01 04:58:21;;;;;;;8.02;2.38;;;;;;;;;;4904213;28;20518;-75
2024/01/01 05:00:47;;;;;;;3.90;2.70;;;;;;;;;;4936535;28;20044;-75
2024/01/01 05:03:13;;;;;;;3.63;1.70;;;;;;;;;;4920731;29;20043;-76
2024/01/01 05:05:39;;;;;;;4.18;1.67;;;;;;;;;;4918871;29;20065;-75
2024/01/01 05:08:05;;;;;;;2.42;1.48;;;;;;;;;;4956747;28;20050;-76
2024/01/01 05:10:31;;;;;;;4.38;1.83;;;;;;;;;;4940636;28;20400;-76
2024/01/01 05:12:57;;;;;;;3.47;1.67;;;;;;;;;;4924919;29;20040;-75
2024/01/01 05:15:24;;;;;;;2.53;1.80;;;;;;;;;;4916275;29;20035;-75
2024/01/01 05:17:50;;;;;;;3.10;1.65;;;;;;;;;;4938765;29;20183;-75
2024/01/01 05:20:16;;;;;;;5.38;2.10;;;;;;;;;;4938601;29;20038;-76
2024/01/01 05:22:42;;;;;;;4.63;2.25;;;;;;;;;;4938988;29;20039;-75
2024/01/01 05:25:08;;;;;;;5.75;1.70;;;;;;;;;;4923048;29;20419;-75
2024/01/01 05:27:34;;;;;;;5.45;1.98;;;;;;;;;;4937482;29;20043;-75
2024/01/01 05:30:00;;;;;;;7.07;1.92;;;;;;;;;;4924429;29;20055;-75
2024/01/01 05:32:26;;;;;;;4.93;1.83;;;;;;;;;;4940204;29;20043;-75
2024/01/01 05:34:52;;;;;;;5.32;1.92;;;;;;;;;;4939865;29;20039;-75
2024/01/01 05:37:18;;;;;;;6.47;2.70;;;;;;;;;;4938955;29;20074;-75
2024/01/01 05:39:45;;;;;;;10.05;3.28;;;;;;;;;;4938624;29;20031;-75
2024/01/01 05:42:11;;;;;;;9.25;2.65;;;;;;;;;;4926909;29;20043;-75
2024/01/01 05:44:37;;;;;;;10.40;2.80;;;;;;;;;;4907652;29;20396;-75
2024/01/01 05:47:03;;;;;;;8.20;3.05;;;;;;;;;;4937915;29;20085;-75
2024/01/01 05:49:29;;;;;;;14.60;4.03;;;;;;;;;;4939983;29;20039;-75
2024/01/01 05:51:55;;;;;;;7.75;3.08;;;;;;;;;;4939522;29;20059;-75
2024/01/01 05:54:21;;;;;;;9.82;3.20;;;;;;;;;;4939565;29;20042;-75
2024/01/01 05:56:47;;;;;;;10.07;3.25;;;;;;;;;;4936211;29;20074;-75
2024/01/01 05:59:13;;;;;;;16.33;2.67;;;;;;;;;;4905026;29;20472;-75
2024/01/01 06:01:40;;;;;;;12.63;3.13;;;;;;;;;;4929970;29;20193;-75
2024/01/01 06:04:06;;;;;;;12.43;2.38;;;;;;;;;;4922350;29;20046;-75
2024/01/01 06:06:32;;;;;;;12.65;3.13;;;;;;;;;;4939435;29;20086;-75
2024/01/01 06:08:58;;;;;;;10.48;2.70;;;;;;;;;;4938983;29;20447;-75
2024/01/01 06:11:24;;;;;;;11.60;2.10;;;;;;;;;;4938228;29;20047;-75
2024/01/01 06:13:50;;;;;;;8.68;2.15;;;;;;;;;;4937046;29;20046;-75
2024/01/01 06:16:16;;;;;;;10.15;2.60;;;;;;;;;;4937634;29;20118;-75
2024/01/01 06:18:43;;;;;;;13.10;2.40;;;;;;;;;;4925735;29;20067;-75
2024/01/01 06:21:09;;;;;;;8.02;2.08;;;;;;;;;;4921727;29;20036;-75
2024/01/01 06:23:35;;;;;;;7.28;1.90;;;;;;;;;;4937661;28;20039;-75
2024/01/01 06:26:02;;;;;;;10.50;1.98;;;;;;;;;;4939141;29;20046;-75
2024/01/01 06:28:29;;;;;;;11.55;2.28;;;;;;;;;;4937609;29;20508;-75
2024/01/01 06:30:55;;;;;;;8.88;2.38;;;;;;;;;;4937197;29;20126;-76
2024/01/01 06:33:21;;;;;;;7.03;2.30;;;;;;;;;;4937629;29;20122;-74
2024/01/01 06:35:47;;;;;;;7.95;1.63;;;;;;;;;;4935362;29;20440;-74
2024/01/01 06:38:13;;;;;;;3.60;1.58;;;;;;;;;;4935724;29;20049;-75
2024/01/01 06:40:39;;;;;;;4.40;1.90;;;;;;;;;;4935557;29;20047;-75
2024/01/01 06:43:05;;;;;;;6.18;1.23;;;;;;;;;;4905311;29;20130;-75
2024/01/01 06:45:31;;;;;;;5.60;1.30;;;;;;;;;;4934945;29;20051;-75
2024/01/01 06:47:57;;;;;;;4.70;1.65;;;;;;;;;;4939197;29;20142;-75
2024/01/01 06:50:23;;;;;;;3.13;1.30;;;;;;;;;;4937179;29;20039;-75
2024/01/01 06:52:50;;;;;;;1.50;0.80;;;;;;;;;;4938808;28;20067;-75
2024/01/01 06:55:17;;;;;;;4.85;1.13;;;;;;;;;;4937995;29;20081;-75
2024/01/01 06:57:44;;;;;;;2.85;1.00;;;;;;;;;;4937002;29;20044;-75
2024/01/01 07:00:10;;;;;;;1.85;1.05;;;;;;;;;;4904303;29;20106;-75
2024/01/01 07:02:36;;;;;;;3.03;0.98;;;;;;;;;;4946304;29;20615;-75
2024/01/01 07:05:02;;;;;;;2.10;1.00;;;;;;;;;;4937047;29;20094;-75
2024/01/01 07:07:28;;;;;;;2.53;0.95;;;;;;;;;;4920882;28;20042;-75
2024/01/01 07:09:55;;;;;;;6.20;1.50;;;;;;;;;;4906946;29;20046;-75
2024/01/01 07:12:28;;;;;;;4.38;1.20;;;;;;;;;;4918839;29;20050;-75
2024/01/01 07:14:55;;;;;;;1.95;1.05;;;;;;;;;;4938774;29;20439;-75
2024/01/01 07:17:21;;;;;;;4.63;1.20;;;;;;;;;;4937735;29;20440;-75
2024/01/01 07:19:47;;;;;;;3.03;1.00;;;;;;;;;;4938172;29;20035;-75
2024/01/01 07:22:15;;;;;;;7.72;2.85;;;;;;;;;;4938379;29;20050;-73
2024/01/01 07:24:41;;;;;;;5.78;1.48;;;;;;;;;;4906597;29;20089;-74
2024/01/01 07:27:08;;;;;;;2.63;1.10;;;;;;;;;;4917836;29;20074;-75
2024/01/01 07:29:34;;;;;;;7.68;1.65;;;;;;;;;;4934511;29;20526;-74
2024/01/01 07:32:00;;;;;;;7.10;1.48;;;;;;;;;;4921619;29;20058;-74
2024/01/01 07:34:26;;;;;;;8.98;1.70;;;;;;;;;;4921325;29;20392;-75
2024/01/01 07:36:54;;;;;;;8.20;1.60;;;;;;;;;;4909306;29;20126;-74
2024/01/01 07:39:21;;;;;;;9.43;1.67;;;;;;;;;;4921128;29;20043;-74
2024/01/01 07:41:47;;;;;;;5.55;1.83;;;;;;;;;;4911869;29;20043;-74
2024/01/01 07:44:13;;;;;;;10.63;1.90;;;;;;;;;;4938108;29;20396;-74
2024/01/01 07:46:39;;;;;;;10.93;2.67;;;;;;;;;;4935805;29;20047;-74
2024/01/01 07:49:06;;;;;;;9.95;2.22;;;;;;;;;;4937948;28;20130;-74
2024/01/01 07:51:33;;;;;;;11.15;2.13;;;;;;;;;;4927680;29;20069;-75
2024/01/01 07:53:59;;;;;;;12.35;2.25;;;;;;;;;;4922254;29;20050;-74
2024/01/01 07:56:26;;;;;;;12.15;1.98;;;;;;;;;;4919602;29;20046;-74
2024/01/01 07:58:56;;;;;;;13.23;2.47;;;;;;;;;;4935521;29;20404;-74
2024/01/01 08:01:22;;;;;;;17.98;3.08;;;;;;;;;;4936414;29;20062;-74
2024/01/01 08:03:48;;;;;;;13.75;2.20;;;;;;;;;;4931858;29;20043;-74
2024/01/01 08:06:14;;;;;;;12.80;2.53;;;;;;;;;;4932117;29;20559;-74
2024/01/01 08:08:40;;;;;;;15.10;2.75;;;;;;;;;;4931777;29;20432;-74
2024/01/01 08:11:07;;;;;;;10.88;2.20;;;;;;;;;;4937634;29;20044;-75
2024/01/01 08:13:33;;;;;;;13.38;2.25;;;;;;;;;;4927588;29;20036;-74
2024/01/01 08:16:02;;;;;;;7.68;2.30;;;;;;;;;;4935571;29;20043;-74
2024/01/01 08:18:28;;;;;;;18.67;3.05;;;;;;;;;;4927278;29;20123;-73
2024/01/01 08:20:54;;;;;;;11.75;3.17;;;;;;;;;;4935900;29;20039;-73
2024/01/01 08:23:20;;;;;;;6.30;2.45;;;;;;;;;;4919050;29;20043;-73
2024/01/01 08:25:46;;;;;;;11.95;2.20;;;;;;;;;;4913029;29;20126;-73
2024/01/01 08:28:13;;;;;;;7.90;2.00;;;;;;;;;;4932712;29;20043;-75
2024/01/01 08:30:39;;;;;;;9.07;2.65;;;;;;;;;;4916100;29;20062;-74
2024/01/01 08:33:06;;;;;;;5.38;1.90;;;;;;;;;;4911277;29;20128;-75
2024/01/01 08:35:32;;;;;;;8.93;2.03;;;;;;;;;;4898257;29;20493;-74
2024/01/01 08:37:58;;;;;;;7.80;2.30;;;;;;;;;;4898958;29;20051;-75
2024/01/01 08:40:24;;;;;;;7.82;1.63;;;;;;;;;;4918773;29;20098;-74
2024/01/01 08:42:53;;;;;;;8.23;1.80;;;;;;;;;;4918941;29;20059;-74
2024/01/01 08:45:22;;;;;;;7.97;1.60;;;;;;;;;;4919313;29;20151;-75
2024/01/01 08:47:48;;;;;;;8.13;1.50;;;;;;;;;;4922441;29;20047;-75
2024/01/01 08:50:14;;;;;;;12.90;1.90;;;;;;;;;;4937789;29;20091;-75
2024/01/01 08:52:42;;;;;;;10.23;1.77;;;;;;;;;;4922177;29;20051;-74
2024/01/01 08:55:08;;;;;;;12.55;2.85;;;;;;;;;;4939463;29;20043;-74
2024/01/01 08:57:35;;;;;;;7.00;2.20;;;;;;;;;;4922093;29;20040;-74
2024/01/01 09:00:01;;;;;;;9.88;2.75;;;;;;;;;;4937612;29;20047;-74
2024/01/01 09:02:27;;;;;;;10.27;2.47;;;;;;;;;;4921748;29;20212;-74
2024/01/01 09:04:53;;;;;;;17.58;2.70;;;;;;;;;;4918908;29;20177;-74
2024/01/01 09:07:20;;;;;;;12.82;2.60;;;;;;;;;;4918566;29;20127;-74
2024/01/01 09:09:46;;;;;;;13.43;2.72;;;;;;;;;;4903190;29;20055;-74
2024/01/01 09:12:12;;;;;;;10.43;2.20;;;;;;;;;;4918261;29;20047;-74
2024/01/01 09:14:39;;;;;;;10.07;2.20;;;;;;;;;;4918618;29;20071;-74
2024/01/01 09:17:07;;;;;;;7.68;2.35;;;;;;;;;;4918414;29;20103;-73
2024/01/01 09:19:34;;;;;;;9.23;2.72;;;;;;;;;;4918174;29;20044;-75
2024/01/01 09:22:00;;;;;;;10.20;2.15;;;;;;;;;;4918348;29;20464;-74
2024/01/01 09:24:26;;;;;;;10.43;2.53;;;;;;;;;;4918785;29;20139;-74
2024/01/01 09:26:52;;;;;;;12.35;2.65;;;;;;;;;;4898208;29;20151;-74
2024/01/01 09:29:19;;;;;;;11.05;2.20;;;;;;;;;;4919831;29;20043;-74
2024/01/01 09:31:45;;;;;;;12.55;2.10;;;;;;;;;;4923971;29;20059;-74
2024/01/01 09:34:11;;;;;;;6.10;1.80;;;;;;;;;;4921432;29;20052;-75
2024/01/01 09:36:37;;;;;;;8.68;2.28;;;;;;;;;;4920814;29;20564;-74
2024/01/01 09:39:04;;;;;;;12.48;2.40;;;;;;;;;;4937297;29;20061;-74
2024/01/01 09:41:30;;;;;;;10.25;2.90;;;;;;;;;;4936565;29;20047;-74
2024/01/01 09:43:56;;;;;;;12.95;2.65;;;;;;;;;;4937242;29;20031;-74
2024/01/01 09:46:23;;;;;;;20.25;3.45;;;;;;;;;;4921265;29;20044;-74
2024/01/01 09:48:49;;;;;;;11.27;2.92;;;;;;;;;;4920912;29;20055;-74
2024/01/01 09:51:15;;;;;;;17.23;2.90;;;;;;;;;;4936750;29;20043;-73
2024/01/01 09:53:45;;;;;;;18.00;3.05;;;;;;;;;;4938784;29;20484;-75
2024/01/01 09:56:11;;;;;;;20.58;3.25;;;;;;;;;;4935348;29;20189;-75
2024/01/01 09:58:41;;;;;;;18.13;3.30;;;;;;;;;;4889416;29;20116;-73
2024/01/01 10:01:11;;;;;;;14.77;2.17;;;;;;;;;;4926852;29;20465;-73
2024/01/01 10:03:38;;;;;;;11.90;2.45;;;;;;;;;;4926713;29;20134;-76
2024/01/01 10:06:08;;;;;;;13.70;3.15;;;;;;;;;;4897927;29;20039;-69
2024/01/01 10:08:34;;;;;;;13.40;3.13;;;;;;;;;;4933377;28;20515;-74
2024/01/01 10:11:15;;;;;;;16.67;3.00;;;;;;;;;;4924154;29;20492;-75
2024/01/01 10:13:41;;;;;;;14.20;2.97;;;;;;;;;;4920295;29;20047;-74
2024/01/01 10:16:07;;;;;;;21.05;3.10;;;;;;;;;;4892197;29;20040;-76
2024/01/01 10:18:34;;;;;;;16.00;3.45;;;;;;;;;;4930234;29;20046;-75
2024/01/01 10:21:12;;;;;;;15.27;2.65;;;;;;;;;;4937055;29;20047;-74
2024/01/01 10:23:38;;;;;;;14.63;2.78;;;;;;;;;;4936812;29;20070;-75
2024/01/01 10:26:11;;;;;;;16.20;2.15;;;;;;;;;;4920796;29;20099;-77
2024/01/01 10:28:37;;;;;;;;;;;;;;;;;;4910265;29;20428;-76
2024/01/01 10:31:03;;;;;;;10.52;1.95;;;;;;;;;;4937284;29;19922;-75
2024/01/01 10:33:32;;;;;;;13.85;3.38;;;;;;;;;;4921735;29;20489;-77
2024/01/01 10:36:00;;;;;;;11.32;2.33;;;;;;;;;;4929680;29;20063;-74
2024/01/01 10:38:26;;;;;;;13.93;3.53;;;;;;;;;;4936920;29;20035;-76
2024/01/01 10:40:56;;;;;;;17.00;2.78;;;;;;;;;;4909879;29;20404;-74
2024/01/01 10:43:27;;;;;;;12.52;2.85;;;;;;;;;;4932279;29;20043;-74
2024/01/01 10:46:03;;;;;;;18.60;3.30;;;;;;;;;;4929422;29;20408;-74
2024/01/01 10:48:30;;;;;;;14.70;3.03;;;;;;;;;;4900613;29;20115;-74
2024/01/01 10:51:04;;;;;;;22.52;3.70;;;;;;;;;;4937087;29;20047;-74
2024/01/01 10:53:42;;;;;;;16.23;3.42;;;;;;;;;;4928537;29;20087;-74
2024/01/01 10:56:28;;;;;;;15.73;3.20;;;;;;;;;;4926324;29;20035;-74
2024/01/01 10:59:13;;;;;;;13.35;3.30;;;;;;;;;;4923444;29;20160;-74
2024/01/01 11:01:39;;;;;;;16.55;3.90;;;;;;;;;;4905406;29;20050;-74
2024/01/01 11:04:05;;;;;;;15.60;2.78;;;;;;;;;;4935606;29;20443;-76
2024/01/01 11:06:33;;;;;;;10.07;2.83;;;;;;;;;;4932563;29;20397;-74
2024/01/01 11:09:18;;;;;;;14.30;2.83;;;;;;;;;;4907037;29;20118;-74
2024/01/01 11:11:48;;;;;;;16.30;3.70;;;;;;;;;;4921292;29;20408;-75
2024/01/01 11:14:28;;;;;;;13.18;2.45;;;;;;;;;;4930837;29;20043;-75
2024/01/01 11:16:54;;;;;;;20.80;3.45;;;;;;;;;;4927323;29;20039;-74
2024/01/01 11:19:36;;;;;;;11.02;3.03;;;;;;;;;;4938215;29;20502;-74
2024/01/01 11:22:20;;;;;;;13.65;3.35;;;;;;;;;;4936094;29;20052;-76
2024/01/01 11:24:47;;;;;;;12.85;2.28;;;;;;;;;;4938325;29;20050;-74
2024/01/01 11:27:29;;;;;;;9.45;2.55;;;;;;;;;;4923748;29;20035;-75
2024/01/01 11:30:02;;;;;;;9.85;2.22;;;;;;;;;;4925362;29;20098;-76
2024/01/01 11:32:28;;;;;;;14.70;2.95;;;;;;;;;;4912290;29;20381;-75
2024/01/01 11:35:04;;;;;;;13.73;3.08;;;;;;;;;;4932080;29;20039;-74
2024/01/01 11:37:30;;;;;;;13.02;2.50;;;;;;;;;;4909800;29;20061;-75
2024/01/01 11:39:59;;;;;;;11.90;2.40;;;;;;;;;;4895145;29;20031;-75
2024/01/01 11:42:25;;;;;;;14.50;3.30;;;;;;;;;;4905444;29;20101;-74
2024/01/01 11:45:04;;;;;;;19.27;2.70;;;;;;;;;;4917635;29;20043;-75
2024/01/01 11:47:30;;;;;;;11.63;2.47;;;;;;;;;;4922019;29;20047;-75
2024/01/01 11:49:57;;;;;;;14.20;2.63;;;;;;;;;;4892521;29;20043;-75
2024/01/01 11:52:23;;;;;;;14.82;2.60;;;;;;;;;;4928646;29;20126;-74
2024/01/01 11:54:53;;;;;;;19.58;3.00;;;;;;;;;;4921940;29;20050;-75
2024/01/01 11:57:19;;;;;;;14.68;3.17;;;;;;;;;;4918299;29;20043;-75
2024/01/01 11:59:46;;;;;;;19.70;3.33;;;;;;;;;;4929482;29;20075;-75
2024/01/01 12:02:12;;;;;;;12.48;2.70;;;;;;;;;;4927283;29;20370;-75
2024/01/01 12:04:39;;;;;;;13.63;3.08;;;;;;;;;;4923424;29;20043;-75
2024/01/01 12:07:06;;;;;;;11.68;2.30;;;;;;;;;;4936762;29;20499;-75
2024/01/01 12:09:32;;;;;;;18.33;2.65;;;;;;;;;;4924953;29;20062;-75
2024/01/01 12:12:05;;;;;;;12.02;2.63;;;;;;;;;;4913931;29;20068;-75
2024/01/01 12:14:31;;;;;;;12.73;3.17;;;;;;;;;;4928054;29;20441;-75
2024/01/01 12:16:57;;;;;;;19.40;3.75;;;;;;;;;;4929563;29;20039;-75
2024/01/01 12:19:24;;;;;;;17.88;3.10;;;;;;;;;;4937011;29;20122;-75
2024/01/01 12:21:53;;;;;;;11.90;3.08;;;;;;;;;;4922903;29;20054;-76
2024/01/01 12:24:20;;;;;;;14.68;3.10;;;;;;;;;;4934311;29;20444;-76
2024/01/01 12:26:48;;;;;;;12.25;2.80;;;;;;;;;;4934261;29;20043;-76
2024/01/01 12:29:14;;;;;;;13.68;2.30;;;;;;;;;;4926770;29;20158;-76
2024/01/01 12:31:41;;;;;;;15.05;2.60;;;;;;;;;;4922677;29;20043;-76
2024/01/01 12:34:08;;;;;;;13.18;2.65;;;;;;;;;;4922292;29;20387;-76
2024/01/01 12:36:34;;;;;;;15.30;3.08;;;;;;;;;;4924846;29;20094;-76
2024/01/01 12:39:01;;;;;;;15.65;3.78;;;;;;;;;;4925651;29;20043;-74
2024/01/01 12:41:28;;;;;;;11.77;2.88;;;;;;;;;;4925293;29;20122;-75
2024/01/01 12:43:54;;;;;;;11.00;2.10;;;;;;;;;;4922574;29;20031;-74
2024/01/01 12:46:20;;;;;;;17.05;3.13;;;;;;;;;;4918339;29;20042;-74
2024/01/01 12:48:47;;;;;;;12.40;2.20;;;;;;;;;;4908617;28;20040;-75
2024/01/01 12:51:18;;;;;;;14.13;2.70;;;;;;;;;;4906711;29;20370;-75
2024/01/01 12:53:45;;;;;;;13.55;2.72;;;;;;;;;;4920199;29;20048;-74
2024/01/01 12:56:11;;;;;;;13.70;3.35;;;;;;;;;;4910161;29;20086;-75
2024/01/01 12:58:41;;;;;;;15.18;4.43;;;;;;;;;;4923767;29;20086;-74
2024/01/01 13:01:10;;;;;;;15.52;2.65;;;;;;;;;;4922659;29;20040;-73
2024/01/01 13:03:37;;;;;;;15.63;2.90;;;;;;;;;;4920398;29;20043;-76
2024/01/01 13:06:03;;;;;;;11.45;2.28;;;;;;;;;;4925128;29;20048;-76
2024/01/01 13:08:29;;;;;;;12.23;2.80;;;;;;;;;;4927722;29;20180;-76
2024/01/01 13:10:55;;;;;;;12.00;3.35;;;;;;;;;;4908276;29;20552;-76
2024/01/01 13:13:21;;;;;;;11.07;2.50;;;;;;;;;;4923912;29;20042;-76
2024/01/01 13:15:47;;;;;;;8.80;2.40;;;;;;;;;;4914812;29;20043;-76
2024/01/01 13:18:13;;;;;;;15.43;3.08;;;;;;;;;;4903836;29;20751;-76
2024/01/01 13:20:41;;;;;;;15.13;2.80;;;;;;;;;;4909307;29;20118;-76
2024/01/01 13:23:08;;;;;;;14.98;2.70;;;;;;;;;;4923411;29;20106;-76
2024/01/01 13:25:34;;;;;;;11.02;2.42;;;;;;;;;;4924581;29;20046;-73
2024/01/01 13:28:00;;;;;;;13.27;3.10;;;;;;;;;;4922794;29;20043;-74
2024/01/01 13:30:26;;;;;;;7.30;2.30;;;;;;;;;;4908714;29;20483;-73
2024/01/01 13:32:52;;;;;;;7.47;2.15;;;;;;;;;;4921622;29;20052;-74
2024/01/01 13:35:19;;;;;;;7.28;2.28;;;;;;;;;;4923625;29;20504;-73
2024/01/01 13:37:45;;;;;;;7.78;2.60;;;;;;;;;;4921252;29;20560;-73
2024/01/01 13:40:11;;;;;;;10.45;2.40;;;;;;;;;;4923931;29;20087;-73
2024/01/01 13:42:37;;;;;;;11.77;2.33;;;;;;;;;;4894471;29;20035;-73
2024/01/01 13:45:05;;;;;;;7.60;2.10;;;;;;;;;;4925958;29;20123;-73
2024/01/01 13:47:31;;;;;;;15.27;2.78;;;;;;;;;;4921559;29;20412;-73
2024/01/01 13:49:57;;;;;;;11.55;3.20;;;;;;;;;;4913423;29;20099;-73
2024/01/01 13:52:24;;;;;;;17.70;2.58;;;;;;;;;;4928829;29;20048;-73
2024/01/01 13:54:50;;;;;;;8.73;3.00;;;;;;;;;;4923643;29;20412;-73
2024/01/01 13:57:16;;;;;;;15.25;2.58;;;;;;;;;;4926290;29;20102;-75
2024/01/01 13:59:42;;;;;;;14.68;2.83;;;;;;;;;;4909049;29;20053;-75
2024/01/01 14:02:08;;;;;;;17.25;2.50;;;;;;;;;;4919524;29;20485;-76
2024/01/01 14:04:34;;;;;;;14.38;2.42;;;;;;;;;;4925443;29;20098;-74
2024/01/01 14:07:00;;;;;;;14.07;2.58;;;;;;;;;;4914530;29;20149;-74
2024/01/01 14:09:27;;;;;;;9.35;2.33;;;;;;;;;;4911520;29;20048;-74
2024/01/01 14:11:53;;;;;;;11.63;2.17;;;;;;;;;;4938947;29;20130;-74
2024/01/01 14:14:20;;;;;;;13.05;2.50;;;;;;;;;;4927463;29;20047;-75
2024/01/01 14:16:46;;;;;;;9.07;2.10;;;;;;;;;;4917508;29;20447;-75
2024/01/01 14:19:14;;;;;;;15.73;2.38;;;;;;;;;;4898951;29;20094;-75
2024/01/01 14:21:40;;;;;;;9.18;2.30;;;;;;;;;;4927943;29;20039;-75
2024/01/01 14:24:06;;;;;;;10.40;2.65;;;;;;;;;;4937529;29;20031;-75
2024/01/01 14:26:34;;;;;;;8.93;2.45;;;;;;;;;;4935971;29;20094;-75
2024/01/01 14:29:00;;;;;;;10.13;1.88;;;;;;;;;;4929575;29;20036;-75